createdAt,value
2023-11-07T00:01:28.112Z,99923.59
2023-11-07T00:03:54.792Z,99922.84
2023-11-07T00:06:21.430Z,99924.83
2023-11-07T00:08:48.158Z,99923.98
2023-11-07T00:11:14.774Z,99930.23
2023-11-07T00:13:43.299Z,99930.37
2023-11-07T00:16:13.328Z,99929.80
2023-11-07T00:18:40.878Z,99931.36
2023-11-07T00:21:07.875Z,99938.52
2023-11-07T00:23:34.700Z,99941.16
2023-11-07T00:26:02.572Z,99944.89
2023-11-07T00:28:29.081Z,99946.95
2023-11-07T00:30:55.566Z,99943.84
2023-11-07T00:33:22.442Z,99942.98
2023-11-07T00:35:49.027Z,99940.58
2023-11-07T00:38:15.785Z,99947.02
2023-11-07T00:40:42.432Z,99945.38
2023-11-07T00:43:09.089Z,99946.50
2023-11-07T00:45:35.762Z,99947.08
2023-11-07T00:48:02.678Z,99945.73
2023-11-07T00:50:29.651Z,99948.10
2023-11-07T00:52:56.116Z,99946.44
2023-11-07T00:55:22.789Z,99950.06
2023-11-07T00:57:49.636Z,99952.33
2023-11-07T01:00:16.803Z,99955.93
2023-11-07T01:02:45.390Z,99958.46
2023-11-07T01:05:12.905Z,99963.98
2023-11-07T01:07:40.371Z,99959.71
2023-11-07T01:10:08.046Z,99958.70
2023-11-07T01:12:35.144Z,99955.31
2023-11-07T01:15:03.960Z,99959.92
2023-11-07T01:17:32.381Z,99964.13
2023-11-07T01:19:59.361Z,99963.06
2023-11-07T01:22:26.871Z,99964.77
2023-11-07T01:24:53.580Z,99965.44
2023-11-07T01:27:20.079Z,99971.02
2023-11-07T01:29:46.739Z,99972.64
2023-11-07T01:32:13.526Z,99971.91
2023-11-07T01:34:40.008Z,99974.57
2023-11-07T01:37:07.473Z,99975.58
2023-11-07T01:39:33.997Z,99979.24
2023-11-07T01:42:00.556Z,99982.38
2023-11-07T01:44:30.369Z,99988.55
2023-11-07T01:46:57.474Z,99992.43
2023-11-07T01:49:25.241Z,99996.27
2023-11-07T01:51:51.862Z,99995.70
2023-11-07T01:54:18.683Z,99999.14
2023-11-07T01:56:45.640Z,99999.63
2023-11-07T01:59:12.203Z,100002.05
2023-11-07T02:01:39.115Z,100005.79
2023-11-07T02:04:05.814Z,100012.23
2023-11-07T02:06:33.170Z,100013.06
2023-11-07T02:09:01.087Z,100016.08
2023-11-07T02:11:29.312Z,100017.70
2023-11-07T02:13:56.812Z,100020.27
2023-11-07T02:16:23.817Z,100022.92
2023-11-07T02:18:51.731Z,100021.05
2023-11-07T02:21:18.324Z,100022.11
2023-11-07T02:23:44.962Z,100023.02
2023-11-07T02:26:11.729Z,100028.73
2023-11-07T02:28:39.482Z,100033.31
2023-11-07T02:31:06.586Z,100040.17
2023-11-07T02:33:33.645Z,100043.98
2023-11-07T02:36:00.831Z,100041.70
2023-11-07T02:38:29.385Z,100046.31
2023-11-07T02:40:56.223Z,100044.94
2023-11-07T02:43:22.817Z,100050.85
2023-11-07T02:45:49.418Z,100055.34
2023-11-07T02:48:16.222Z,100052.84
2023-11-07T02:50:43.109Z,100055.95
2023-11-07T02:53:09.886Z,100063.19
2023-11-07T02:55:36.520Z,100064.76
2023-11-07T02:58:03.059Z,100071.24
2023-11-07T03:00:29.736Z,100069.52
2023-11-07T03:02:56.329Z,100069.93
2023-11-07T03:05:23.186Z,100075.52
2023-11-07T03:07:49.695Z,100077.23
2023-11-07T03:10:16.489Z,100079.75
2023-11-07T03:12:43.160Z,100085.21
2023-11-07T03:15:10.089Z,100088.02
2023-11-07T03:17:37.197Z,100094.20
2023-11-07T03:20:06.992Z,100096.24
2023-11-07T03:22:33.653Z,100099.95
2023-11-07T03:25:00.261Z,100100.45
2023-11-07T03:27:26.835Z,100098.73
2023-11-07T03:29:53.872Z,100106.36
2023-11-07T03:32:20.374Z,100115.06
2023-11-07T03:34:46.869Z,100119.84
2023-11-07T03:37:13.575Z,100127.81
2023-11-07T03:39:40.246Z,100124.34
2023-11-07T03:42:07.094Z,100125.25
2023-11-07T03:44:35.530Z,100125.65
2023-11-07T03:47:06.121Z,100128.16
2023-11-07T03:49:33.489Z,100133.08
2023-11-07T03:52:00.665Z,100127.54
2023-11-07T03:54:27.636Z,100130.77
2023-11-07T03:56:54.181Z,100132.59
2023-11-07T03:59:20.921Z,100139.24
2023-11-07T04:01:47.664Z,100137.95
2023-11-07T04:04:14.435Z,100138.19
2023-11-07T04:06:41.113Z,100133.60
2023-11-07T04:09:08.337Z,100135.25
2023-11-07T04:11:34.913Z,100139.90
2023-11-07T04:14:01.400Z,100142.98
2023-11-07T04:16:28.408Z,100143.81
2023-11-07T04:18:55.601Z,100151.64
2023-11-07T04:21:22.604Z,100154.85
2023-11-07T04:23:49.518Z,100157.23
2023-11-07T04:26:16.922Z,100158.02
2023-11-07T04:28:43.476Z,100163.70
2023-11-07T04:31:10.061Z,100167.09
2023-11-07T04:33:39.001Z,100170.16
2023-11-07T04:36:07.078Z,100166.23
2023-11-07T04:38:34.734Z,100166.91
2023-11-07T04:41:02.467Z,100168.02
2023-11-07T04:44:23.530Z,100172.20
2023-11-07T04:46:50.773Z,100182.67
2023-11-07T04:49:18.140Z,100182.42
2023-11-07T04:51:45.562Z,100181.66
2023-11-07T04:54:12.920Z,100184.36
2023-11-07T04:56:40.355Z,100183.92
2023-11-07T04:59:07.784Z,100188.23
2023-11-07T05:01:35.700Z,100192.88
2023-11-07T05:04:03.600Z,100198.40
2023-11-07T05:06:32.051Z,100199.52
2023-11-07T05:09:00.104Z,100200.09
2023-11-07T05:11:28.835Z,100205.07
2023-11-07T05:13:56.106Z,100209.59
2023-11-07T05:16:23.316Z,100214.57
2023-11-07T05:18:50.693Z,100217.66
2023-11-07T05:21:18.249Z,100220.10
2023-11-07T05:23:45.738Z,100220.72
2023-11-07T05:26:13.158Z,100221.45
2023-11-07T05:28:40.539Z,100226.46
2023-11-07T05:31:07.785Z,100230.92
2023-11-07T05:33:36.017Z,100235.50
2023-11-07T05:36:04.738Z,100238.27
2023-11-07T05:38:32.197Z,100244.70
2023-11-07T05:40:59.435Z,100248.60
2023-11-07T05:43:26.954Z,100252.80
2023-11-07T05:45:54.514Z,100254.17
2023-11-07T05:48:25.580Z,100259.00
2023-11-07T05:50:53.059Z,100259.13
2023-11-07T05:53:20.393Z,100261.41
2023-11-07T05:55:47.873Z,100267.50
2023-11-07T05:58:15.552Z,100268.62
2023-11-07T06:00:42.786Z,100277.41
2023-11-07T06:03:10.151Z,100279.57
2023-11-07T06:05:37.535Z,100289.60
2023-11-07T06:08:05.389Z,100290.41
2023-11-07T06:10:32.593Z,100298.13
2023-11-07T06:12:59.880Z,100296.75
2023-11-07T06:15:27.204Z,100295.62
2023-11-07T06:17:54.510Z,100293.95
2023-11-07T06:20:22.787Z,100297.86
2023-11-07T06:22:51.925Z,100300.68
2023-11-07T06:25:20.343Z,100299.98
2023-11-07T06:27:52.354Z,100306.43
2023-11-07T06:30:21.390Z,100303.90
2023-11-07T06:32:51.147Z,100309.06
2023-11-07T06:35:18.674Z,100307.39
2023-11-07T06:37:47.543Z,100304.60
2023-11-07T06:40:17.196Z,100303.70
2023-11-07T06:42:47.420Z,100308.52
2023-11-07T06:45:15.313Z,100312.94
2023-11-07T06:47:47.188Z,100312.67
2023-11-07T06:50:17.272Z,100317.89
2023-11-07T06:52:54.311Z,100320.26
2023-11-07T06:55:26.609Z,100325.02
2023-11-07T06:57:56.371Z,100331.38
2023-11-07T07:00:26.709Z,100337.75
2023-11-07T07:02:58.590Z,100339.83
2023-11-07T07:05:27.014Z,100338.56
2023-11-07T07:07:55.989Z,100337.21
2023-11-07T07:10:24.258Z,100335.60
2023-11-07T07:12:52.362Z,100335.63
2023-11-07T07:15:19.689Z,100335.42
2023-11-07T07:17:47.545Z,100331.05
2023-11-07T07:20:14.986Z,100329.55
2023-11-07T07:22:43.128Z,100335.56
2023-11-07T07:25:16.846Z,100335.21
2023-11-07T07:27:48.620Z,100338.21
2023-11-07T07:30:22.763Z,100336.59
2023-11-07T07:32:52.082Z,100341.48
2023-11-07T07:35:22.492Z,100346.84
2023-11-07T07:37:53.811Z,100352.98
2023-11-07T07:40:30.888Z,100360.40
2023-11-07T07:43:10.427Z,100362.84
2023-11-07T07:45:45.352Z,100365.05
2023-11-07T07:48:13.267Z,100365.77
2023-11-07T07:50:43.417Z,100368.50
2023-11-07T07:53:11.969Z,100377.42
2023-11-07T07:55:44.562Z,100370.45
2023-11-07T07:58:12.468Z,100374.23
2023-11-07T08:00:39.945Z,100375.09
2023-11-07T08:03:11.349Z,100380.13
2023-11-07T08:05:41.047Z,100387.70
2023-11-07T08:08:09.885Z,100389.36
2023-11-07T08:10:37.658Z,100386.17
2023-11-07T08:13:08.831Z,100388.27
2023-11-07T08:15:37.521Z,100394.67
2023-11-07T08:18:08.942Z,100400.88
2023-11-07T08:20:39.600Z,100402.94
2023-11-07T08:23:07.259Z,100409.39
2023-11-07T08:25:35.128Z,100411.48
2023-11-07T08:28:08.144Z,100414.30
2023-11-07T08:30:38.831Z,100412.24
2023-11-07T08:33:08.995Z,100415.12
2023-11-07T08:35:38.076Z,100420.80
2023-11-07T08:38:05.802Z,100423.14
2023-11-07T08:40:33.216Z,100422.08
2023-11-07T08:43:01.253Z,100421.87
2023-11-07T08:45:30.060Z,100418.16
2023-11-07T08:47:58.341Z,100428.98
2023-11-07T08:50:27.093Z,100428.79
2023-11-07T08:52:54.764Z,100432.00
2023-11-07T08:55:22.545Z,100430.54
2023-11-07T08:57:51.226Z,100434.98
2023-11-07T09:00:23.363Z,100438.29
2023-11-07T09:02:52.044Z,100436.39
2023-11-07T09:05:19.705Z,100437.80
2023-11-07T09:07:47.916Z,100442.86
2023-11-07T09:10:15.736Z,100438.97
2023-11-07T09:12:43.610Z,100435.09
2023-11-07T09:15:12.675Z,100434.14
2023-11-07T09:17:40.966Z,100430.55
2023-11-07T09:20:13.050Z,100433.10
2023-11-07T09:22:44.360Z,100429.67
2023-11-07T09:25:13.095Z,100431.19
2023-11-07T09:27:40.819Z,100432.16
2023-11-07T09:30:10.668Z,100431.38
2023-11-07T09:32:39.823Z,100430.11
2023-11-07T09:35:08.783Z,100430.88
2023-11-07T09:37:42.485Z,100424.64
2023-11-07T09:40:24.179Z,100413.92
2023-11-07T09:42:53.409Z,100408.81
2023-11-07T09:45:21.103Z,100410.20
2023-11-07T09:47:50.604Z,100411.20
2023-11-07T09:50:20.223Z,100408.17
2023-11-07T09:52:48.961Z,100410.15
2023-11-07T09:55:17.278Z,100417.38
2023-11-07T09:58:09.638Z,100417.55
2023-11-07T10:00:45.073Z,100420.89
2023-11-07T10:03:13.307Z,100423.30
2023-11-07T10:05:41.208Z,100422.76
2023-11-07T10:08:08.620Z,100430.15
2023-11-07T10:10:36.133Z,100435.30
2023-11-07T10:13:11.907Z,100441.15
2023-11-07T10:15:40.363Z,100441.22
2023-11-07T10:18:12.458Z,100443.09
2023-11-07T10:20:51.585Z,100443.48
2023-11-07T10:23:19.437Z,100434.48
2023-11-07T10:25:51.672Z,100436.90
2023-11-07T10:28:21.590Z,100435.02
2023-11-07T10:30:49.823Z,100429.41
2023-11-07T10:33:29.861Z,100429.88
2023-11-07T10:36:01.886Z,100436.96
2023-11-07T10:38:32.993Z,100434.59
2023-11-07T10:41:02.799Z,100428.48
2023-11-07T10:43:36.616Z,100428.71
2023-11-07T10:46:10.167Z,100429.22
2023-11-07T10:48:41.952Z,100423.23
2023-11-07T10:51:14.445Z,100420.91
2023-11-07T10:53:45.764Z,100418.42
2023-11-07T10:56:19.301Z,100415.06
2023-11-07T10:59:17.980Z,100415.53
2023-11-07T11:01:47.540Z,100418.36
2023-11-07T11:04:15.797Z,100419.47
2023-11-07T11:06:53.537Z,100415.27
2023-11-07T11:09:22.379Z,100413.73
2023-11-07T11:11:52.085Z,100414.31
2023-11-07T11:14:20.493Z,100414.13
2023-11-07T11:16:49.103Z,100411.04
2023-11-07T11:19:28.548Z,100412.64
2023-11-07T11:22:25.465Z,100408.98
2023-11-07T11:25:20.615Z,100413.11
2023-11-07T11:27:52.388Z,100408.41
2023-11-07T11:30:28.094Z,100408.79
2023-11-07T11:33:08.452Z,100412.27
2023-11-07T11:35:42.809Z,100405.15
2023-11-07T11:38:16.597Z,100406.16
2023-11-07T11:41:02.136Z,100397.16
2023-11-07T11:43:35.067Z,100403.40
2023-11-07T11:46:13.089Z,100402.33
2023-11-07T11:48:53.265Z,100401.98
2023-11-07T11:51:35.132Z,100401.90
2023-11-07T11:54:02.516Z,100400.41
2023-11-07T11:56:29.878Z,100399.01
2023-11-07T11:59:04.546Z,100399.54
2023-11-07T12:01:47.605Z,100399.30
2023-11-07T12:04:51.117Z,100398.73
2023-11-07T12:07:22.650Z,100398.20
2023-11-07T12:09:54.401Z,100398.80
2023-11-07T12:12:21.713Z,100405.25
2023-11-07T12:14:56.364Z,100402.27
2023-11-07T12:17:44.216Z,100402.70
2023-11-07T12:20:15.793Z,100402.55
2023-11-07T12:22:44.774Z,100408.00
2023-11-07T12:25:22.125Z,100405.12
2023-11-07T12:28:06.937Z,100406.29
2023-11-07T12:30:35.650Z,100401.52
2023-11-07T12:33:05.220Z,100398.95
2023-11-07T12:35:32.758Z,100398.52
2023-11-07T12:38:02.184Z,100396.77
2023-11-07T12:40:30.050Z,100396.91
2023-11-07T12:42:57.535Z,100393.08
2023-11-07T12:45:32.724Z,100392.10
2023-11-07T12:48:01.587Z,100395.51
2023-11-07T12:50:32.675Z,100395.36
2023-11-07T12:53:02.029Z,100395.38
2023-11-07T12:55:29.779Z,100397.30
2023-11-07T12:57:57.517Z,100393.60
2023-11-07T13:00:26.948Z,100390.38
2023-11-07T13:02:58.970Z,100390.61
2023-11-07T13:05:26.819Z,100391.71
2023-11-07T13:07:54.544Z,100389.39
2023-11-07T13:10:22.236Z,100386.81
2023-11-07T13:12:52.653Z,100387.73
2023-11-07T13:15:20.065Z,100391.48
2023-11-07T13:17:48.032Z,100390.48
2023-11-07T13:20:18.150Z,100391.61
2023-11-07T13:22:47.247Z,100396.80
2023-11-07T13:25:15.157Z,100395.08
2023-11-07T13:27:44.048Z,100398.63
2023-11-07T13:30:20.170Z,100398.55
2023-11-07T13:32:47.634Z,100393.41
2023-11-07T13:35:15.084Z,100392.32
2023-11-07T13:37:42.724Z,100394.79
2023-11-07T13:40:11.086Z,100396.38
2023-11-07T13:42:39.139Z,100395.73
2023-11-07T13:45:07.408Z,100395.05
2023-11-07T13:47:34.951Z,100391.56
2023-11-07T13:50:05.957Z,100387.92
2023-11-07T13:52:33.631Z,100388.24
2023-11-07T13:55:01.254Z,100386.11
2023-11-07T13:57:28.641Z,100391.02
2023-11-07T13:59:56.064Z,100390.00
2023-11-07T14:02:23.457Z,100393.81
2023-11-07T14:04:50.796Z,100389.21
2023-11-07T14:07:18.577Z,100390.44
2023-11-07T14:09:45.916Z,100388.25
2023-11-07T14:12:13.973Z,100386.15
2023-11-07T14:14:41.657Z,100383.97
2023-11-07T14:17:09.225Z,100386.88
2023-11-07T14:19:36.583Z,100389.25
2023-11-07T14:26:10.257Z,100394.15
2023-11-07T14:28:46.826Z,100390.28
2023-11-07T14:31:22.613Z,100386.86
2023-11-07T14:33:50.909Z,100387.42
2023-11-07T14:36:18.999Z,100385.36
2023-11-07T14:38:47.125Z,100385.50
2023-11-07T14:41:15.522Z,100388.55
2023-11-07T14:43:42.917Z,100390.40
2023-11-07T14:46:11.236Z,100394.50
2023-11-07T14:48:38.750Z,100397.05
2023-11-07T14:51:06.233Z,100396.55
2023-11-07T14:53:34.443Z,100397.03
2023-11-07T14:56:01.971Z,100402.26
2023-11-07T14:58:29.395Z,100403.28
2023-11-07T15:00:57.980Z,100400.54
2023-11-07T15:03:25.759Z,100400.27
2023-11-07T15:05:55.180Z,100395.79
2023-11-07T15:08:23.583Z,100399.21
2023-11-07T15:10:51.512Z,100403.08
2023-11-07T15:13:19.015Z,100398.17
2023-11-07T15:15:46.595Z,100401.48
2023-11-07T15:18:14.094Z,100405.70
2023-11-07T15:20:43.800Z,100409.96
2023-11-07T15:23:11.215Z,100407.52
2023-11-07T15:25:40.870Z,100406.90
2023-11-07T15:28:08.401Z,100403.38
2023-11-07T15:30:36.888Z,100405.25
2023-11-07T15:33:05.083Z,100407.13
2023-11-07T15:35:38.021Z,100401.08
2023-11-07T15:38:10.340Z,100401.85
2023-11-07T15:40:40.428Z,100401.60
2023-11-07T15:43:09.533Z,100401.42
2023-11-07T15:45:37.057Z,100403.07
2023-11-07T15:48:09.390Z,100402.77
2023-11-07T15:50:37.989Z,100404.46
2023-11-07T15:53:08.647Z,100400.71
2023-11-07T15:55:38.412Z,100402.25
2023-11-07T15:58:06.825Z,100393.91
2023-11-07T16:00:35.281Z,100392.73
2023-11-07T16:03:04.186Z,100396.48
2023-11-07T16:05:35.318Z,100400.73
2023-11-07T16:08:03.575Z,100397.14
2023-11-07T16:10:32.843Z,100393.69
2023-11-07T16:13:00.747Z,100392.20
2023-11-07T16:15:28.148Z,100394.95
2023-11-07T16:17:56.094Z,100396.95
2023-11-07T16:20:24.382Z,100392.19
2023-11-07T16:22:51.828Z,100391.60
2023-11-07T16:25:20.251Z,100391.44
2023-11-07T16:27:48.185Z,100394.60
2023-11-07T16:30:17.731Z,100394.69
2023-11-07T16:32:45.438Z,100393.38
2023-11-07T16:35:13.972Z,100392.98
2023-11-07T16:37:41.315Z,100391.54
2023-11-07T16:40:12.505Z,100386.29
2023-11-07T16:42:42.045Z,100380.63
2023-11-07T16:45:13.819Z,100380.39
2023-11-07T16:47:43.749Z,100378.55
2023-11-07T16:50:14.647Z,100376.27
2023-11-07T16:52:42.443Z,100372.23
2023-11-07T16:55:14.952Z,100371.13
2023-11-07T16:57:43.853Z,100367.48
2023-11-07T17:00:13.103Z,100367.46
2023-11-07T17:02:42.303Z,100365.81
2023-11-07T17:05:10.576Z,100363.41
2023-11-07T17:07:38.189Z,100365.29
2023-11-07T17:10:09.740Z,100363.03
2023-11-07T17:12:37.515Z,100364.57
2023-11-07T17:15:08.444Z,100366.41
2023-11-07T17:17:36.063Z,100367.54
2023-11-07T17:20:07.027Z,100367.61
2023-11-07T17:22:37.473Z,100364.94
2023-11-07T17:25:05.807Z,100366.35
2023-11-07T17:27:33.496Z,100369.64
2023-11-07T17:30:01.176Z,100366.16
2023-11-07T17:32:29.608Z,100367.30
2023-11-07T17:34:59.887Z,100364.70
2023-11-07T17:37:29.838Z,100366.13
2023-11-07T17:39:57.559Z,100368.56
2023-11-07T17:42:25.647Z,100366.80
2023-11-07T17:44:52.964Z,100367.85
2023-11-07T17:47:21.907Z,100369.21
2023-11-07T17:49:49.480Z,100362.41
2023-11-07T17:52:19.471Z,100369.56
2023-11-07T17:54:46.913Z,100370.07
2023-11-07T17:57:14.238Z,100366.77
2023-11-07T17:59:41.599Z,100368.98
2023-11-07T18:02:09.208Z,100369.65
2023-11-07T18:04:37.379Z,100372.92
2023-11-07T18:07:04.760Z,100371.66
2023-11-07T18:09:32.212Z,100370.70
2023-11-07T18:11:59.652Z,100369.71
2023-11-07T18:14:28.846Z,100368.65
2023-11-07T18:16:58.273Z,100361.97
2023-11-07T18:19:25.865Z,100363.57
2023-11-07T18:21:53.237Z,100361.60
2023-11-07T18:24:20.550Z,100359.77
2023-11-07T18:26:51.040Z,100357.39
2023-11-07T18:29:18.582Z,100355.93
2023-11-07T18:31:45.969Z,100356.77
2023-11-07T18:34:20.939Z,100360.95
2023-11-07T18:37:00.668Z,100363.95
2023-11-07T18:39:32.133Z,100362.90
2023-11-07T18:42:00.179Z,100366.20
2023-11-07T18:44:37.001Z,100369.14
2023-11-07T18:47:04.899Z,100367.06
2023-11-07T18:49:35.171Z,100370.86
2023-11-07T18:52:03.924Z,100371.07
2023-11-07T18:54:31.473Z,100374.30
2023-11-07T18:56:59.330Z,100373.28
2023-11-07T18:59:34.341Z,100371.12
2023-11-07T19:02:06.749Z,100374.00
2023-11-07T19:04:37.408Z,100367.41
2023-11-07T19:07:06.334Z,100372.55
2023-11-07T19:09:34.240Z,100371.67
2023-11-07T19:12:04.772Z,100369.87
2023-11-07T19:14:32.218Z,100367.17
2023-11-07T19:16:59.746Z,100369.05
2023-11-07T19:19:28.344Z,100365.56
2023-11-07T19:21:56.722Z,100363.40
2023-11-07T19:24:24.046Z,100363.77
2023-11-07T19:26:51.647Z,100363.59
2023-11-07T19:29:19.533Z,100370.25
2023-11-07T19:31:51.385Z,100368.13
2023-11-07T19:34:21.559Z,100367.45
2023-11-07T19:36:49.531Z,100363.20
2023-11-07T19:39:18.695Z,100361.27
2023-11-07T19:41:47.075Z,100360.91
2023-11-07T19:44:14.692Z,100361.84
2023-11-07T19:46:41.979Z,100361.39
2023-11-07T19:49:09.339Z,100362.02
2023-11-07T19:51:39.163Z,100360.61
2023-11-07T19:54:07.111Z,100360.54
2023-11-07T19:56:42.210Z,100360.13
2023-11-07T19:59:11.711Z,100360.56
2023-11-07T20:01:40.631Z,100361.20
2023-11-07T20:04:09.471Z,100364.67
2023-11-07T20:06:37.298Z,100364.05
2023-11-07T20:09:04.758Z,100362.06
2023-11-07T20:11:33.541Z,100365.35
2023-11-07T20:14:01.996Z,100363.38
2023-11-07T20:16:29.491Z,100364.27
2023-11-07T20:18:56.907Z,100359.61
2023-11-07T20:21:24.409Z,100360.00
2023-11-07T20:23:54.642Z,100356.58
2023-11-07T20:26:22.306Z,100352.71
2023-11-07T20:28:51.187Z,100355.75
2023-11-07T20:31:19.123Z,100354.06
2023-11-07T20:33:49.988Z,100353.36
2023-11-07T20:36:19.645Z,100350.73
2023-11-07T20:38:47.757Z,100348.00
2023-11-07T20:41:19.936Z,100347.07
2023-11-07T20:43:47.988Z,100341.70
2023-11-07T20:46:30.623Z,100339.59
2023-11-07T20:49:03.622Z,100338.17
2023-11-07T20:51:33.191Z,100340.09
2023-11-07T20:54:00.650Z,100340.16
2023-11-07T20:56:30.694Z,100336.68
2023-11-07T20:58:58.161Z,100338.17
2023-11-07T21:01:27.580Z,100338.25
2023-11-07T21:03:56.895Z,100337.33
2023-11-07T21:06:25.159Z,100338.59
2023-11-07T21:08:53.471Z,100342.27
2023-11-07T21:11:23.622Z,100343.00
2023-11-07T21:13:53.956Z,100340.28
2023-11-07T21:16:21.551Z,100340.69
2023-11-07T21:18:49.202Z,100339.56
2023-11-07T21:21:16.996Z,100341.83
2023-11-07T21:23:44.676Z,100343.50
2023-11-07T21:26:12.102Z,100339.39
2023-11-07T21:28:39.412Z,100335.95
2023-11-07T21:31:06.858Z,100338.66
2023-11-07T21:33:34.621Z,100340.81
2023-11-07T21:36:02.829Z,100344.29
2023-11-07T21:38:30.743Z,100346.91
2023-11-07T21:40:58.017Z,100348.71
2023-11-07T21:43:25.680Z,100350.41
2023-11-07T21:45:53.346Z,100351.50
2023-11-07T21:48:27.237Z,100353.89
2023-11-07T21:50:56.867Z,100353.81
2023-11-07T21:53:25.734Z,100352.06
2023-11-07T21:55:54.552Z,100357.73
2023-11-07T21:58:21.892Z,100359.45
2023-11-07T22:00:49.122Z,100360.80
2023-11-07T22:03:16.492Z,100365.32
2023-11-07T22:05:43.887Z,100362.21
2023-11-07T22:08:11.956Z,100359.10
2023-11-07T22:10:39.265Z,100358.48
2023-11-07T22:13:06.501Z,100358.22
2023-11-07T22:15:33.734Z,100365.58
2023-11-07T22:18:01.149Z,100366.15
2023-11-07T22:20:28.555Z,100363.48
2023-11-07T22:22:55.768Z,100360.83
2023-11-07T22:25:23.015Z,100360.27
2023-11-07T22:27:50.304Z,100355.48
2023-11-07T22:30:17.856Z,100357.66
2023-11-07T22:32:45.442Z,100359.83
2023-11-07T22:35:14.088Z,100352.33
2023-11-07T22:37:41.616Z,100349.21
2023-11-07T22:40:12.194Z,100344.10
2023-11-07T22:42:41.426Z,100340.92
2023-11-07T22:45:09.896Z,100338.02
2023-11-07T22:47:40.629Z,100333.67
2023-11-07T22:50:08.749Z,100335.77
2023-11-07T22:52:36.025Z,100333.83
2023-11-07T22:55:03.854Z,100333.84
2023-11-07T22:57:31.171Z,100328.78
2023-11-07T22:59:58.552Z,100322.05
2023-11-07T23:02:25.768Z,100313.85
2023-11-07T23:04:53.318Z,100303.47
2023-11-07T23:07:21.559Z,100306.08
2023-11-07T23:09:50.501Z,100306.79
2023-11-07T23:12:18.106Z,100311.20
2023-11-07T23:14:46.742Z,100313.03
2023-11-07T23:17:14.719Z,100310.16
2023-11-07T23:19:42.807Z,100304.25
2023-11-07T23:22:13.501Z,100304.19
2023-11-07T23:24:43.649Z,100303.91
2023-11-07T23:27:11.087Z,100310.20
2023-11-07T23:29:39.111Z,100313.08
2023-11-07T23:32:07.480Z,100313.61
2023-11-07T23:34:34.848Z,100313.80
2023-11-07T23:37:02.256Z,100315.67
2023-11-07T23:39:30.329Z,100315.67
2023-11-07T23:41:57.800Z,100314.77
2023-11-07T23:44:27.600Z,100317.04
2023-11-07T23:46:55.265Z,100315.91
2023-11-07T23:49:22.549Z,100311.41
2023-11-07T23:51:49.998Z,100309.27
2023-11-07T23:54:17.356Z,100311.54
2023-11-07T23:56:44.821Z,100323.86
2023-11-07T23:59:12.031Z,100325.34
